Time;durP1;ratioP1;P1;durP2;ratioP2;P2;SDS_P1;SDS_P2;PMS_P1;PMS_P2;Temp;Humidity;BMP_temperature;BMP_pressure;BME280_temperature;BME280_humidity;BME280_pressure;Samples;Min_cycle;Max_cycle;Signal;HPM_P1;HPM_P2
2022/07/23 00:03:02;;;;;;;25.60;19.30;;;;;14.50;101347.00;;;;10448930;28;20729;-79
2022/07/23 00:08:06;;;;;;;26.70;20.43;;;;;14.40;101348.00;;;;10448457;28;20204;-80
2022/07/23 00:13:15;;;;;;;24.40;20.53;;;;;14.30;101348.00;;;;10447657;28;20212;-80
2022/07/23 00:18:17;;;;;;;26.27;20.43;;;;;14.20;101338.00;;;;10464769;28;20591;-80
2022/07/23 00:23:18;;;;;;;28.67;22.10;;;;;14.20;101338.00;;;;10447108;28;20213;-80
2022/07/23 00:28:21;;;;;;;25.40;20.73;;;;;14.10;101338.00;;;;10419508;28;20284;-80
2022/07/23 00:33:23;;;;;;;27.30;21.90;;;;;14.10;101344.00;;;;10460991;28;20186;-80
2022/07/23 00:38:25;;;;;;;31.87;23.27;;;;;14.10;101342.00;;;;10429099;28;20197;-80
2022/07/23 00:43:28;;;;;;;28.70;22.97;;;;;14.00;101345.00;;;;10446444;28;20308;-80
2022/07/23 00:48:29;;;;;;;36.57;24.53;;;;;14.00;101334.00;;;;10447988;28;20208;-80
2022/07/23 00:53:32;;;;;;;28.57;23.67;;;;;13.90;101337.00;;;;10431273;28;20189;-80
2022/07/23 00:58:35;;;;;;;32.73;25.57;;;;;13.90;101331.00;;;;10445996;28;20259;-81
2022/07/23 01:03:37;;;;;;;36.20;26.37;;;;;13.90;101315.00;;;;10446780;28;20245;-81
2022/07/23 01:08:40;;;;;;;31.93;23.83;;;;;13.90;101317.00;;;;10422530;28;20290;-81
2022/07/23 01:13:43;;;;;;;31.87;25.10;;;;;13.90;101315.00;;;;10444645;28;20189;-81
2022/07/23 01:18:45;;;;;;;29.70;25.70;;;;;13.80;101309.00;;;;10447396;28;20197;-81
2022/07/23 01:23:47;;;;;;;30.60;24.93;;;;;13.70;101314.00;;;;10428622;28;20221;-81
2022/07/23 01:28:49;;;;;;;42.33;27.20;;;;;13.60;101306.00;;;;10395035;28;20293;-81
2022/07/23 01:33:51;;;;;;;42.47;26.83;;;;;13.60;101296.00;;;;10429926;28;20182;-81
2022/07/23 01:38:54;;;;;;;37.97;29.13;;;;;13.50;101307.00;;;;10434722;28;20194;-81
2022/07/23 01:43:56;;;;;;;31.80;24.77;;;;;13.50;101299.00;;;;10463356;28;20225;-81
2022/07/23 01:48:59;;;;;;;39.87;27.60;;;;;13.40;101300.00;;;;10445188;28;20185;-81
2022/07/23 01:54:28;;;;;;;37.87;28.27;;;;;13.40;101296.00;;;;10431297;28;20202;-80
2022/07/23 01:59:31;;;;;;;36.10;27.60;;;;;13.40;101300.00;;;;10440379;28;20226;-81
2022/07/23 02:04:36;;;;;;;37.27;27.53;;;;;13.40;101290.00;;;;10454214;28;20288;-81
2022/07/23 02:09:38;;;;;;;32.07;26.53;;;;;13.30;101300.00;;;;10445651;28;20189;-81
2022/07/23 02:14:40;;;;;;;32.23;26.83;;;;;13.30;101297.00;;;;10420700;28;20243;-81
2022/07/23 02:19:43;;;;;;;37.97;27.93;;;;;13.20;101305.00;;;;10445151;28;20733;-81
2022/07/23 02:24:44;;;;;;;41.17;28.43;;;;;13.20;101301.00;;;;10461821;28;20730;-81
2022/07/23 02:29:47;;;;;;;38.87;28.63;;;;;13.20;101304.00;;;;10459667;28;20189;-81
2022/07/23 02:34:49;;;;;;;45.13;29.87;;;;;13.10;101300.00;;;;10445612;28;20193;-81
2022/07/23 02:39:52;;;;;;;39.63;29.60;;;;;13.10;101306.00;;;;10443860;28;20205;-81
2022/07/23 02:44:54;;;;;;;41.97;28.20;;;;;13.00;101301.00;;;;10461814;28;20193;-81
2022/07/23 02:49:57;;;;;;;40.77;29.00;;;;;13.00;101298.00;;;;10453567;28;20199;-81
2022/07/23 02:54:59;;;;;;;42.60;30.87;;;;;12.90;101304.00;;;;10467558;28;20194;-81
2022/07/23 03:00:01;;;;;;;41.30;28.53;;;;;12.90;101308.00;;;;10412997;28;20877;-82
2022/07/23 03:05:03;;;;;;;41.47;29.47;;;;;12.90;101320.00;;;;10452072;28;20197;-81
2022/07/23 03:10:05;;;;;;;39.37;30.50;;;;;12.80;101325.00;;;;10483178;28;20193;-81
2022/07/23 03:15:08;;;;;;;46.77;30.30;;;;;12.80;101326.00;;;;10425830;28;20249;-81
2022/07/23 03:20:10;;;;;;;43.87;31.97;;;;;12.80;101333.00;;;;10467620;28;20214;-81
2022/07/23 03:25:13;;;;;;;41.10;29.50;;;;;12.80;101336.00;;;;10434901;28;20228;-81
2022/07/23 03:30:15;;;;;;;41.63;28.53;;;;;12.80;101338.00;;;;10435462;28;20198;-81
2022/07/23 03:35:17;;;;;;;42.63;30.43;;;;;12.80;101340.00;;;;10415252;28;20202;-81
2022/07/23 03:40:32;;;;;;;41.03;30.20;;;;;12.80;101340.00;;;;10449428;28;20245;-81
2022/07/23 03:45:34;;;;;;;41.97;29.87;;;;;12.80;101338.00;;;;10412303;28;20743;-81
2022/07/23 03:50:37;;;;;;;42.23;30.73;;;;;12.80;101349.00;;;;10450914;28;20224;-81
2022/07/23 03:55:39;;;;;;;35.83;27.47;;;;;12.70;101362.00;;;;10432629;28;20229;-81
2022/07/23 04:00:41;;;;;;;36.60;27.63;;;;;12.70;101359.00;;;;10422723;28;20213;-81
2022/07/23 04:05:43;;;;;;;40.10;29.10;;;;;12.70;101351.00;;;;10410396;28;20274;-81
2022/07/23 04:10:48;;;;;;;41.17;29.43;;;;;12.70;101366.00;;;;10432530;28;20194;-81
2022/07/23 04:15:50;;;;;;;42.40;29.90;;;;;12.80;101360.00;;;;10447643;28;20193;-81
2022/07/23 04:20:53;;;;;;;44.73;30.20;;;;;12.80;101363.00;;;;10424539;28;20214;-81
2022/07/23 04:25:55;;;;;;;40.10;29.50;;;;;12.90;101360.00;;;;10425217;28;20201;-81
2022/07/23 04:30:59;;;;;;;43.20;31.30;;;;;13.00;101362.00;;;;10424102;28;20229;-81
2022/07/23 04:36:04;;;;;;;39.87;28.93;;;;;13.10;101351.00;;;;10419411;28;20197;-81
2022/07/23 04:41:05;;;;;;;45.70;30.37;;;;;13.20;101363.00;;;;10430445;28;20217;-81
2022/07/23 04:46:08;;;;;;;46.23;31.57;;;;;13.30;101374.00;;;;10447816;28;20201;-81
2022/07/23 04:51:17;;;;;;;42.40;31.53;;;;;13.50;101374.00;;;;10463699;28;20189;-81
2022/07/23 04:56:20;;;;;;;40.43;28.93;;;;;13.60;101374.00;;;;10458997;28;20193;-81
2022/07/23 05:01:22;;;;;;;39.73;29.80;;;;;13.70;101374.00;;;;10445717;28;20688;-80
2022/07/23 05:06:24;;;;;;;41.07;30.77;;;;;14.00;101373.00;;;;10415584;28;20193;-81
2022/07/23 05:11:27;;;;;;;41.03;29.57;;;;;14.60;101370.00;;;;10439389;28;20194;-80
2022/07/23 05:16:29;;;;;;;43.60;30.23;;;;;14.90;101380.00;;;;10445357;28;20285;-80
2022/07/23 05:21:36;;;;;;;35.37;26.70;;;;;15.20;101381.00;;;;10458118;28;20206;-80
2022/07/23 05:26:38;;;;;;;35.83;27.00;;;;;15.50;101376.00;;;;10426232;28;20201;-80
2022/07/23 05:31:41;;;;;;;36.47;27.40;;;;;16.20;101377.00;;;;10445752;28;20216;-79
2022/07/23 05:36:43;;;;;;;34.57;27.80;;;;;16.90;101378.00;;;;10444373;28;20201;-80
2022/07/23 05:41:45;;;;;;;35.53;26.30;;;;;17.40;101385.00;;;;10436150;28;20684;-80
2022/07/23 05:46:47;;;;;;;29.67;23.25;;;;;17.50;101385.00;;;;10420996;28;20206;-80
2022/07/23 05:52:03;;;;;;;28.05;21.50;;;;;17.40;101386.00;;;;10459981;28;20194;-80
2022/07/23 05:57:21;;;;;;;23.00;20.50;;;;;17.50;101384.00;;;;10424957;28;20209;-81
2022/07/23 06:02:26;;;;;;;24.10;20.10;;;;;17.70;101389.00;;;;10429216;28;20213;-80
2022/07/23 06:07:30;;;;;;;22.02;18.10;;;;;17.70;101401.00;;;;10438554;28;20198;-80
2022/07/23 06:12:32;;;;;;;20.02;17.77;;;;;17.70;101397.00;;;;10439948;28;20213;-80
2022/07/23 06:17:34;;;;;;;20.30;16.35;;;;;18.00;101403.00;;;;10441997;28;20182;-80
2022/07/23 06:22:38;;;;;;;16.83;15.05;;;;;18.80;101406.00;;;;10409801;28;20202;-79
2022/07/23 06:27:40;;;;;;;15.90;14.23;;;;;19.30;101417.00;;;;10419299;28;20202;-80
2022/07/23 06:32:42;;;;;;;14.65;13.30;;;;;20.00;101412.00;;;;10448089;28;20193;-80
2022/07/23 06:37:44;;;;;;;16.25;12.63;;;;;20.20;101404.00;;;;10451884;28;20239;-80
2022/07/23 06:42:49;;;;;;;14.05;12.65;;;;;20.50;101413.00;;;;10429033;28;20209;-80
2022/07/23 06:47:56;;;;;;;13.20;11.65;;;;;21.10;101421.00;;;;10475289;28;20269;-80
2022/07/23 06:52:58;;;;;;;13.18;10.65;;;;;21.70;101432.00;;;;10439260;28;20194;-80
2022/07/23 06:58:00;;;;;;;14.35;10.65;;;;;21.60;101418.00;;;;10432734;28;20234;-80
2022/07/23 07:03:02;;;;;;;12.57;11.30;;;;;21.80;101418.00;;;;10459506;28;20206;-80
2022/07/23 07:08:04;;;;;;;12.75;11.30;;;;;22.30;101419.00;;;;10438743;28;20217;-80
2022/07/23 07:13:06;;;;;;;11.50;10.35;;;;;22.60;101419.00;;;;10443517;28;20243;-80
2022/07/23 07:18:08;;;;;;;12.05;10.93;;;;;22.80;101428.00;;;;10419024;28;20215;-80
2022/07/23 07:23:10;;;;;;;14.60;10.45;;;;;22.90;101436.00;;;;10443908;28;20304;-80
2022/07/23 07:28:17;;;;;;;12.50;10.73;;;;;23.10;101445.00;;;;10439214;28;20656;-78
2022/07/23 07:33:20;;;;;;;12.77;10.63;;;;;23.40;101437.00;;;;10442432;28;20597;-78
2022/07/23 07:38:23;;;;;;;13.57;10.95;;;;;23.80;101445.00;;;;10442067;28;20205;-79
2022/07/23 07:43:25;;;;;;;12.25;10.95;;;;;24.10;101452.00;;;;10424367;28;20271;-79
2022/07/23 07:48:27;;;;;;;13.15;11.73;;;;;24.30;101452.00;;;;10458872;28;20198;-79
2022/07/23 07:53:30;;;;;;;14.02;10.40;;;;;24.40;101460.00;;;;10480418;28;20208;-79
2022/07/23 07:58:32;;;;;;;12.02;10.15;;;;;24.70;101466.00;;;;10446915;28;20209;-79
2022/07/23 08:03:33;;;;;;;10.50;9.40;;;;;25.00;101459.00;;;;10470096;28;20286;-79
2022/07/23 08:08:38;;;;;;;12.32;8.98;;;;;25.50;101465.00;;;;10423997;28;20205;-79
2022/07/23 08:13:40;;;;;;;10.85;9.85;;;;;25.90;101460.00;;;;10456059;28;20718;-77
2022/07/23 08:18:42;;;;;;;13.18;8.48;;;;;26.10;101459.00;;;;10446857;28;20255;-77
2022/07/23 08:23:45;;;;;;;8.50;7.70;;;;;26.30;101448.00;;;;10464356;28;20197;-77
2022/07/23 08:28:47;;;;;;;13.18;8.68;;;;;26.50;101455.00;;;;10442662;28;20236;-77
2022/07/23 08:33:49;;;;;;;8.68;7.30;;;;;26.90;101452.00;;;;10446522;28;20194;-77
2022/07/23 08:38:50;;;;;;;8.77;7.60;;;;;27.30;101453.00;;;;10433790;28;20229;-77
2022/07/23 08:43:53;;;;;;;7.80;6.97;;;;;27.80;101465.00;;;;10445137;28;20867;-77
2022/07/23 08:48:55;;;;;;;9.90;7.28;;;;;28.30;101450.00;;;;10451319;28;20240;-77
2022/07/23 08:53:58;;;;;;;10.65;8.10;;;;;28.30;101454.00;;;;10474266;28;20823;-76
2022/07/23 08:59:01;;;;;;;9.77;7.53;;;;;28.40;101462.00;;;;10437593;28;20205;-77
2022/07/23 09:04:03;;;;;;;7.45;6.13;;;;;28.90;101456.00;;;;10455322;28;20288;-77
2022/07/23 09:09:19;;;;;;;8.90;6.13;;;;;29.30;101445.00;;;;10427447;28;20201;-76
2022/07/23 09:14:48;;;;;;;6.72;6.00;;;;;29.30;101457.00;;;;10435293;28;20196;-77
2022/07/23 09:19:50;;;;;;;8.30;5.57;;;;;29.60;101447.00;;;;10445954;28;20195;-77
2022/07/23 09:25:22;;;;;;;5.20;4.53;;;;;30.00;101441.00;;;;10441651;28;20626;-77
2022/07/23 09:30:30;;;;;;;8.18;3.95;;;;;30.10;101443.00;;;;10441486;28;20212;-77
2022/07/23 09:35:50;;;;;;;3.97;3.50;;;;;30.20;101441.00;;;;10427134;28;20649;-77
2022/07/23 09:41:06;;;;;;;5.78;4.07;;;;;30.80;101443.00;;;;10444023;28;20202;-77
2022/07/23 09:46:24;;;;;;;5.03;3.95;;;;;30.60;101443.00;;;;10464228;28;20193;-77
2022/07/23 09:56:32;;;;;;;3.75;3.10;;;;;31.10;101447.00;;;;10433614;28;20228;-78
2022/07/23 10:01:34;;;;;;;2.95;2.67;;;;;30.80;101438.00;;;;10446322;28;20259;-77
2022/07/23 10:06:40;;;;;;;3.92;2.60;;;;;31.00;101444.00;;;;10404029;28;20197;-78
2022/07/23 10:17:29;;;;;;;4.32;3.25;;;;;32.10;101438.00;;;;10458698;28;20200;-78
2022/07/23 10:22:37;;;;;;;4.20;2.80;;;;;32.20;101437.00;;;;10444414;28;20747;-78
2022/07/23 10:27:57;;;;;;;2.67;1.92;;;;;32.10;101432.00;;;;10445089;28;20780;-78
2022/07/23 10:33:26;;;;;;;3.85;3.22;;;;;32.00;101429.00;;;;10433273;28;20190;-77
2022/07/23 10:38:33;;;;;;;3.17;2.95;;;;;32.20;101428.00;;;;10474517;28;20189;-78
2022/07/23 10:43:35;;;;;;;4.65;2.58;;;;;32.50;101428.00;;;;10474909;28;20996;-78
2022/07/23 10:48:38;;;;;;;2.22;2.03;;;;;32.60;101424.00;;;;10457136;28;20717;-79
2022/07/23 10:53:55;;;;;;;4.55;2.40;;;;;33.10;101427.00;;;;10421201;28;20198;-79
2022/07/23 10:59:04;;;;;;;5.28;2.50;;;;;33.10;101424.00;;;;10454311;28;20201;-79
2022/07/23 11:04:07;;;;;;;2.45;2.05;;;;;33.10;101432.00;;;;10453298;28;20201;-79
2022/07/23 11:09:29;;;;;;;3.88;2.50;;;;;32.80;101432.00;;;;10446269;28;20221;-79
2022/07/23 11:15:09;;;;;;;2.80;1.90;;;;;32.80;101417.00;;;;10455938;28;20189;-79
2022/07/23 11:20:17;;;;;;;1.90;1.50;;;;;33.00;101406.00;;;;10441718;28;20221;-80
2022/07/23 11:25:22;;;;;;;2.78;2.00;;;;;33.00;101412.00;;;;10450628;28;20263;-79
2022/07/23 11:30:45;;;;;;;3.15;2.00;;;;;33.00;101400.00;;;;10451370;28;20185;-79
2022/07/23 11:35:50;;;;;;;2.90;1.80;;;;;33.10;101407.00;;;;10481126;28;20196;-79
2022/07/23 11:40:57;;;;;;;2.40;2.08;;;;;33.40;101397.00;;;;10444726;28;20209;-80
2022/07/23 11:46:00;;;;;;;5.38;2.10;;;;;32.80;101395.00;;;;10448163;28;20201;-79
2022/07/23 11:51:02;;;;;;;2.58;1.98;;;;;32.70;101397.00;;;;10446803;28;20201;-78
2022/07/23 11:56:09;;;;;;;4.43;2.45;;;;;32.10;101388.00;;;;10411214;28;20202;-79
2022/07/23 12:01:12;;;;;;;2.95;2.05;;;;;32.00;101388.00;;;;10426745;28;20230;-79
2022/07/23 12:06:14;;;;;;;3.45;2.28;;;;;32.90;101391.00;;;;10407841;28;20255;-79
2022/07/23 12:11:16;;;;;;;3.35;2.03;;;;;33.70;101381.00;;;;10424276;28;20210;-79
2022/07/23 12:16:19;;;;;;;6.32;2.28;;;;;33.90;101379.00;;;;10420985;28;20186;-79
2022/07/23 12:21:22;;;;;;;2.47;1.90;;;;;34.10;101384.00;;;;10482131;28;20205;-78
2022/07/23 12:26:24;;;;;;;2.17;1.90;;;;;34.10;101389.00;;;;10450587;28;20200;-79
2022/07/23 12:31:27;;;;;;;2.58;2.38;;;;;33.60;101397.00;;;;10464828;28;20468;-79
2022/07/23 12:36:41;;;;;;;5.38;3.35;;;;;33.60;101376.00;;;;10423223;28;20260;-79
2022/07/23 12:41:53;;;;;;;3.38;3.08;;;;;33.80;101385.00;;;;10433237;28;20198;-79
2022/07/23 12:46:55;;;;;;;5.85;3.72;;;;;33.90;101376.00;;;;10419414;28;20691;-79
2022/07/23 12:51:57;;;;;;;3.92;3.50;;;;;34.00;101372.00;;;;10463661;28;20698;-79
2022/07/23 12:56:59;;;;;;;4.78;2.95;;;;;34.20;101370.00;;;;10444842;28;20198;-79
2022/07/23 13:02:02;;;;;;;3.50;2.88;;;;;34.60;101365.00;;;;10440814;28;20206;-79
2022/07/23 13:07:04;;;;;;;2.80;2.38;;;;;33.20;101368.00;;;;10421682;28;20202;-79
2022/07/23 13:12:06;;;;;;;2.60;2.40;;;;;33.50;101363.00;;;;10405586;28;20735;-78
2022/07/23 13:17:08;;;;;;;5.78;3.17;;;;;33.20;101373.00;;;;10423659;28;20228;-79
2022/07/23 13:22:11;;;;;;;3.90;2.90;;;;;33.10;101347.00;;;;10412121;28;20190;-78
2022/07/23 13:27:12;;;;;;;2.80;2.58;;;;;32.30;101362.00;;;;10465626;28;20205;-78
2022/07/23 13:32:15;;;;;;;3.33;3.03;;;;;31.20;101363.00;;;;10460440;28;20751;-79
2022/07/23 13:37:17;;;;;;;4.15;3.10;;;;;32.80;101359.00;;;;10429459;28;20656;-78
2022/07/23 13:42:19;;;;;;;3.95;3.53;;;;;32.80;101346.00;;;;10444979;28;20185;-78
2022/07/23 13:47:24;;;;;;;5.68;3.28;;;;;33.10;101355.00;;;;10428683;28;20237;-79
2022/07/23 13:52:26;;;;;;;3.42;3.13;;;;;33.20;101346.00;;;;10444638;28;20213;-78
2022/07/23 13:57:30;;;;;;;4.13;3.38;;;;;33.30;101342.00;;;;10427661;28;20266;-79
2022/07/23 14:02:32;;;;;;;2.90;2.70;;;;;33.40;101356.00;;;;10445538;28;20236;-79
2022/07/23 14:07:36;;;;;;;3.47;2.83;;;;;31.30;101356.00;;;;10442807;28;20190;-79
2022/07/23 14:12:38;;;;;;;3.10;2.80;;;;;31.20;101355.00;;;;10444499;28;20205;-78
2022/07/23 14:17:43;;;;;;;4.63;3.20;;;;;33.30;101347.00;;;;10444810;28;20193;-78
2022/07/23 14:22:46;;;;;;;4.70;3.80;;;;;34.70;101343.00;;;;10458760;28;20251;-78
2022/07/23 14:27:48;;;;;;;3.70;2.95;;;;;34.80;101333.00;;;;10459133;28;20226;-79
2022/07/23 14:32:50;;;;;;;5.00;3.80;;;;;34.20;101350.00;;;;10443832;28;20220;-78
2022/07/23 14:37:52;;;;;;;3.53;3.13;;;;;34.40;101336.00;;;;10459907;28;20711;-78
2022/07/23 14:42:54;;;;;;;4.80;4.00;;;;;34.30;101342.00;;;;10450071;28;20212;-78
2022/07/23 14:47:56;;;;;;;4.25;3.45;;;;;31.50;101340.00;;;;10469563;28;20193;-78
2022/07/23 14:52:58;;;;;;;4.53;3.55;;;;;30.30;101334.00;;;;10433985;28;20210;-78
2022/07/23 14:58:01;;;;;;;4.43;3.65;;;;;31.00;101341.00;;;;10444684;28;20194;-78
2022/07/23 15:03:03;;;;;;;5.68;3.58;;;;;29.00;101341.00;;;;10478810;28;20221;-79
2022/07/23 15:08:05;;;;;;;4.57;3.20;;;;;30.20;101336.00;;;;10462194;28;20202;-78
2022/07/23 15:13:10;;;;;;;3.22;2.92;;;;;29.50;101334.00;;;;10437314;28;20205;-78
2022/07/23 15:18:12;;;;;;;3.50;3.20;;;;;30.00;101310.00;;;;10435159;28;20228;-79
2022/07/23 15:23:18;;;;;;;5.25;3.20;;;;;36.70;101315.00;;;;10468082;28;20186;-78
2022/07/23 15:28:21;;;;;;;6.03;3.63;;;;;38.80;101311.00;;;;10450092;28;20225;-78
2022/07/23 15:33:23;;;;;;;5.45;3.65;;;;;32.60;101333.00;;;;10428143;28;20681;-79
2022/07/23 15:38:27;;;;;;;5.65;3.70;;;;;30.60;101319.00;;;;10433902;28;20284;-78
2022/07/23 15:43:31;;;;;;;5.35;3.70;;;;;32.60;101320.00;;;;10481324;28;20192;-78
2022/07/23 15:48:35;;;;;;;4.25;3.35;;;;;30.30;101316.00;;;;10433387;28;20189;-78
2022/07/23 15:53:38;;;;;;;9.25;3.63;;;;;32.70;101313.00;;;;10432967;28;20213;-78
2022/07/23 15:58:41;;;;;;;11.05;3.90;;;;;30.50;101307.00;;;;10445220;28;20590;-79
2022/07/23 16:03:44;;;;;;;4.45;3.30;;;;;30.90;101309.00;;;;10449403;28;20644;-78
2022/07/23 16:08:48;;;;;;;7.07;3.63;;;;;29.80;101294.00;;;;10466088;28;20186;-78
2022/07/23 16:13:50;;;;;;;4.68;3.63;;;;;29.30;101300.00;;;;10464007;28;20251;-78
2022/07/23 16:18:54;;;;;;;4.80;3.50;;;;;29.10;101290.00;;;;10440989;28;20199;-78
2022/07/23 16:23:56;;;;;;;4.05;3.75;;;;;28.60;101294.00;;;;10445692;28;20243;-78
2022/07/23 16:28:58;;;;;;;4.78;3.33;;;;;28.70;101290.00;;;;10447018;28;20240;-78
2022/07/23 16:34:01;;;;;;;6.38;3.90;;;;;29.10;101286.00;;;;10437216;28;20202;-79
2022/07/23 16:39:03;;;;;;;6.57;3.78;;;;;29.10;101286.00;;;;10409899;28;20201;-78
2022/07/23 16:44:07;;;;;;;5.05;3.92;;;;;29.20;101277.00;;;;10431740;28;20189;-78
2022/07/23 16:49:09;;;;;;;4.50;3.63;;;;;29.10;101280.00;;;;10429991;28;20704;-78
2022/07/23 16:54:12;;;;;;;3.70;3.28;;;;;29.10;101278.00;;;;10446858;28;20225;-79
2022/07/23 16:59:15;;;;;;;4.28;3.47;;;;;29.00;101284.00;;;;10430330;28;20210;-78
2022/07/23 17:04:17;;;;;;;4.32;3.67;;;;;28.90;101284.00;;;;10449432;28;20195;-78
2022/07/23 17:09:20;;;;;;;3.92;3.40;;;;;28.80;101278.00;;;;10422698;28;20251;-78
2022/07/23 17:14:23;;;;;;;4.25;3.85;;;;;28.20;101279.00;;;;10422369;28;20279;-78
2022/07/23 17:19:26;;;;;;;5.63;3.40;;;;;27.90;101277.00;;;;10408882;28;20189;-78
2022/07/23 17:24:28;;;;;;;5.57;3.88;;;;;27.60;101287.00;;;;10445749;28;20193;-78
2022/07/23 17:29:35;;;;;;;4.75;3.45;;;;;27.50;101297.00;;;;10569304;27;1334233;-78
2022/07/23 17:34:37;;;;;;;4.60;4.07;;;;;27.50;101298.00;;;;10513020;28;20193;-78
2022/07/23 17:39:39;;;;;;;5.18;3.97;;;;;27.50;101295.00;;;;10480648;28;20205;-78
2022/07/23 17:44:41;;;;;;;5.88;3.63;;;;;27.40;101292.00;;;;10525446;28;20246;-78
2022/07/23 17:49:43;;;;;;;4.22;3.80;;;;;27.20;101297.00;;;;10499569;28;20188;-78
2022/07/23 17:54:46;;;;;;;5.70;3.95;;;;;26.90;101295.00;;;;10521667;28;20200;-78
2022/07/23 17:59:48;;;;;;;5.13;3.60;;;;;26.50;101294.00;;;;10529800;28;20212;-78
2022/07/23 18:04:50;;;;;;;4.93;3.58;;;;;26.40;101284.00;;;;10506943;28;20190;-78
2022/07/23 18:09:52;;;;;;;6.18;3.53;;;;;26.40;101287.00;;;;10462304;28;20200;-78
2022/07/23 18:14:54;;;;;;;3.80;3.40;;;;;26.40;101287.00;;;;10478229;28;20193;-78
2022/07/23 18:19:56;;;;;;;4.97;3.72;;;;;26.30;101298.00;;;;10501983;28;20207;-77
2022/07/23 18:24:58;;;;;;;4.30;3.42;;;;;26.20;101294.00;;;;10536691;28;20204;-79
2022/07/23 18:30:01;;;;;;;6.13;3.25;;;;;26.10;101301.00;;;;10469964;28;20201;-78
2022/07/23 18:35:04;;;;;;;8.80;4.10;;;;;25.90;101296.00;;;;10489285;28;20554;-78
2022/07/23 18:40:12;;;;;;;5.03;3.70;;;;;25.90;101298.00;;;;10472043;28;20221;-77
2022/07/23 18:45:14;;;;;;;4.30;3.75;;;;;25.80;101301.00;;;;10467458;28;20224;-78
2022/07/23 18:50:16;;;;;;;4.85;3.65;;;;;25.70;101303.00;;;;10497809;28;20264;-78
2022/07/23 18:55:18;;;;;;;5.07;3.45;;;;;25.50;101305.00;;;;10458689;28;20213;-78
2022/07/23 19:00:20;;;;;;;3.78;3.40;;;;;25.20;101317.00;;;;10491500;28;20209;-79
2022/07/23 19:05:23;;;;;;;7.05;3.58;;;;;25.00;101316.00;;;;10507225;28;20204;-78
2022/07/23 19:10:25;;;;;;;4.53;4.03;;;;;24.70;101328.00;;;;10476792;28;20185;-78
2022/07/23 19:15:27;;;;;;;5.38;4.50;;;;;24.50;101330.00;;;;10474182;28;20185;-78
2022/07/23 19:20:29;;;;;;;5.57;4.20;;;;;24.20;101322.00;;;;10490198;28;20242;-78
2022/07/23 19:25:31;;;;;;;6.18;4.20;;;;;23.90;101324.00;;;;10461335;28;20213;-80
2022/07/23 19:30:33;;;;;;;8.05;5.15;;;;;23.50;101329.00;;;;10484267;28;20193;-77
2022/07/23 19:35:37;;;;;;;4.50;4.10;;;;;23.20;101325.00;;;;10488091;28;20212;-76
2022/07/23 19:40:39;;;;;;;4.60;4.15;;;;;22.90;101329.00;;;;10463521;28;20219;-78
2022/07/23 19:45:41;;;;;;;9.35;4.72;;;;;22.70;101339.00;;;;10441735;28;20217;-78
2022/07/23 19:50:43;;;;;;;4.93;4.25;;;;;22.50;101352.00;;;;10475841;28;20288;-78
2022/07/23 19:55:45;;;;;;;6.65;4.47;;;;;22.30;101356.00;;;;10482994;28;20287;-78
2022/07/23 20:00:47;;;;;;;5.50;4.60;;;;;22.00;101359.00;;;;10466674;28;20296;-78
2022/07/23 20:05:49;;;;;;;12.80;5.70;;;;;21.80;101358.00;;;;10491082;28;20268;-78
2022/07/23 20:10:51;;;;;;;6.32;5.03;;;;;21.70;101362.00;;;;10477342;28;20225;-78
2022/07/23 20:15:53;;;;;;;6.97;5.45;;;;;21.50;101372.00;;;;10453062;28;20253;-78
2022/07/23 20:20:56;;;;;;;7.88;5.43;;;;;21.30;101368.00;;;;10430967;28;20755;-78
2022/07/23 20:25:58;;;;;;;6.63;5.65;;;;;21.20;101371.00;;;;10465297;28;20217;-78
2022/07/23 20:31:03;;;;;;;5.95;5.35;;;;;21.10;101366.00;;;;10465938;28;20189;-77
2022/07/23 20:36:07;;;;;;;6.07;5.18;;;;;21.00;101378.00;;;;10471356;28;20246;-78
2022/07/23 20:41:09;;;;;;;7.88;5.15;;;;;21.10;101380.00;;;;10466589;28;20194;-78
2022/07/23 20:46:11;;;;;;;8.55;5.82;;;;;21.00;101378.00;;;;10446685;28;20225;-78
2022/07/23 20:51:13;;;;;;;9.18;6.38;;;;;21.00;101375.00;;;;10449482;28;20648;-77
2022/07/23 20:56:15;;;;;;;6.45;5.85;;;;;20.90;101386.00;;;;10459819;28;20541;-79
2022/07/23 21:01:18;;;;;;;8.35;5.68;;;;;20.60;101389.00;;;;10462210;28;20209;-78
2022/07/23 21:06:20;;;;;;;6.45;5.80;;;;;20.70;101399.00;;;;10451208;28;20198;-79
2022/07/23 21:11:22;;;;;;;5.70;5.15;;;;;20.90;101392.00;;;;10457450;28;20275;-79
2022/07/23 21:16:24;;;;;;;6.47;5.35;;;;;20.90;101406.00;;;;10446007;28;20190;-79
2022/07/23 21:21:26;;;;;;;7.60;5.80;;;;;20.80;101405.00;;;;10461446;28;20189;-78
2022/07/23 21:26:29;;;;;;;6.63;5.93;;;;;20.60;101404.00;;;;10445006;28;20609;-78
2022/07/23 21:31:34;;;;;;;5.97;5.47;;;;;20.40;101400.00;;;;10451790;28;20236;-78
2022/07/23 21:36:36;;;;;;;9.25;6.47;;;;;20.30;101397.00;;;;10448598;28;20220;-78
2022/07/23 21:41:38;;;;;;;7.85;7.00;;;;;20.00;101414.00;;;;10502990;28;20659;-78
2022/07/23 21:46:40;;;;;;;7.22;6.13;;;;;19.80;101416.00;;;;10456148;28;20300;-78
2022/07/23 21:51:44;;;;;;;9.02;7.63;;;;;19.60;101410.00;;;;10468437;28;20220;-78
2022/07/23 21:56:46;;;;;;;8.35;7.25;;;;;19.50;101410.00;;;;10482923;28;20189;-78
2022/07/23 22:01:49;;;;;;;11.68;9.52;;;;;19.30;101419.00;;;;10482232;28;20767;-78
2022/07/23 22:06:51;;;;;;;11.68;9.70;;;;;19.20;101412.00;;;;10452008;28;20205;-78
2022/07/23 22:11:53;;;;;;;13.30;11.90;;;;;19.10;101411.00;;;;10477365;28;20595;-78
2022/07/23 22:16:55;;;;;;;16.52;13.23;;;;;19.20;101423.00;;;;10434553;28;20197;-79
2022/07/23 22:21:57;;;;;;;14.20;12.75;;;;;19.20;101419.00;;;;10450538;28;20227;-78
2022/07/23 22:26:59;;;;;;;15.27;13.80;;;;;19.10;101426.00;;;;10438841;28;20217;-78
2022/07/23 22:32:01;;;;;;;19.08;17.08;;;;;19.10;101432.00;;;;10480682;28;20243;-78
2022/07/23 22:37:03;;;;;;;20.30;17.33;;;;;19.20;101439.00;;;;10467895;28;20193;-78
2022/07/23 22:42:05;;;;;;;20.25;18.10;;;;;19.30;101437.00;;;;10475418;28;20196;-78
2022/07/23 22:47:07;;;;;;;20.92;17.60;;;;;19.20;101444.00;;;;10480086;28;20300;-77
2022/07/23 22:52:10;;;;;;;18.45;16.58;;;;;19.10;101440.00;;;;10492535;28;20205;-78
2022/07/23 22:57:12;;;;;;;18.95;16.85;;;;;19.10;101447.00;;;;10508392;28;20588;-77
2022/07/23 23:02:14;;;;;;;20.88;17.55;;;;;19.00;101450.00;;;;10475925;28;20299;-78
2022/07/23 23:07:16;;;;;;;20.10;17.20;;;;;19.00;101445.00;;;;10449835;28;20736;-78
2022/07/23 23:12:18;;;;;;;22.25;18.27;;;;;18.90;101439.00;;;;10450511;28;20711;-77
2022/07/23 23:17:20;;;;;;;20.48;18.10;;;;;18.80;101441.00;;;;10465344;28;20190;-78
2022/07/23 23:22:22;;;;;;;25.55;20.90;;;;;18.70;101452.00;;;;10433380;28;20182;-77
2022/07/23 23:27:24;;;;;;;26.00;21.35;;;;;18.60;101444.00;;;;10431946;28;20224;-78
2022/07/23 23:32:26;;;;;;;23.50;20.35;;;;;18.50;101450.00;;;;10460346;28;20193;-77
2022/07/23 23:37:28;;;;;;;27.80;21.98;;;;;18.40;101448.00;;;;10451216;28;20194;-78
2022/07/23 23:42:36;;;;;;;24.55;21.80;;;;;18.30;101450.00;;;;10448681;28;20890;-78
2022/07/23 23:47:38;;;;;;;25.75;22.23;;;;;18.20;101448.00;;;;10457696;28;20208;-78
2022/07/23 23:52:41;;;;;;;26.33;21.33;;;;;18.10;101451.00;;;;10453847;28;20198;-78
2022/07/23 23:57:43;;;;;;;30.83;21.73;;;;;18.00;101444.00;;;;10431702;28;20267;-78
